Terminal Aerodrome Forecast
Issued by NWS

Home | Current Version | Previous Version | Text Only | Print | Product List | Glossary On
Versions: 1 2 3 4 5 6 7 8 9 10 11 12 13 14 15 16 17
000
FTUS41 KPBZ 022326
TAFBVI
TAF
KBVI 022326Z 0300/0324 35005KT P6SM VCSH OVC040
     FM030500 35005KT P6SM BKN025
     FM031200 VRB04KT P6SM BKN015
     FM031500 VRB04KT P6SM BKN025
     FM032000 31007KT P6SM BKN035
      AMD NOT SKED 0302/0312=

USA.gov is the U.S. government's official web portal to all federal, state and local government web resources and services.